Terminal Aerodrome Forecast
Issued by NWS Newport/Morehead City, NC

Home | Current Version | Previous Version | Graphics & Text | Print | Product List | Glossary On
Versions: 1 2 3 4 5 6 7 8 9 10 11 12 13 14 15 16 17 18 19
381
FTUS42 KMHX 122321
TAFEWN
TAF
KEWN 122321Z 1300/1324 35006KT P6SM OVC006
     FM130700 30005KT P6SM SCT010
     FM131300 32012G21KT P6SM SKC=

USA.gov is the U.S. government's official web portal to all federal, state and local government web resources and services.